sensor_id;sensor_type;location;lat;lon;timestamp;pressure;altitude;pressure_sealevel;temperature;humidity
40372;BME280;28564;53.346;-6.554;2024-03-02T00:00:51;98520.21;;;6.47;47.74
40372;BME280;28564;53.346;-6.554;2024-03-02T00:03:19;98528.10;;;6.44;47.78
40372;BME280;28564;53.346;-6.554;2024-03-02T00:05:50;98528.31;;;6.36;47.83
40372;BME280;28564;53.346;-6.554;2024-03-02T00:08:23;98526.14;;;6.31;48.00
40372;BME280;28564;53.346;-6.554;2024-03-02T00:10:50;98524.16;;;6.25;47.88
40372;BME280;28564;53.346;-6.554;2024-03-02T00:13:20;98525.33;;;6.13;47.81
40372;BME280;28564;53.346;-6.554;2024-03-02T00:15:51;98524.05;;;6.31;47.86
40372;BME280;28564;53.346;-6.554;2024-03-02T00:18:24;98525.74;;;5.97;47.80
40372;BME280;28564;53.346;-6.554;2024-03-02T00:20:54;98527.53;;;5.90;47.92
40372;BME280;28564;53.346;-6.554;2024-03-02T00:23:21;98526.30;;;5.87;48.07
40372;BME280;28564;53.346;-6.554;2024-03-02T00:25:50;98523.57;;;5.80;48.12
40372;BME280;28564;53.346;-6.554;2024-03-02T00:28:19;98521.88;;;5.68;47.83
40372;BME280;28564;53.346;-6.554;2024-03-02T00:31:05;98525.75;;;5.95;47.96
40372;BME280;28564;53.346;-6.554;2024-03-02T00:33:34;98525.61;;;6.15;48.05
40372;BME280;28564;53.346;-6.554;2024-03-02T00:36:02;98522.88;;;5.60;48.02
40372;BME280;28564;53.346;-6.554;2024-03-02T00:38:30;98526.95;;;5.81;47.99
40372;BME280;28564;53.346;-6.554;2024-03-02T00:41:00;98527.68;;;5.55;48.02
40372;BME280;28564;53.346;-6.554;2024-03-02T00:43:45;98527.50;;;5.50;47.91
40372;BME280;28564;53.346;-6.554;2024-03-02T00:46:17;98530.48;;;5.71;47.98
40372;BME280;28564;53.346;-6.554;2024-03-02T00:48:54;98535.37;;;5.67;47.88
40372;BME280;28564;53.346;-6.554;2024-03-02T00:51:22;98535.43;;;5.92;47.96
40372;BME280;28564;53.346;-6.554;2024-03-02T00:53:50;98536.96;;;5.60;47.80
40372;BME280;28564;53.346;-6.554;2024-03-02T00:56:18;98541.23;;;5.60;47.88
40372;BME280;28564;53.346;-6.554;2024-03-02T00:58:46;98544.81;;;5.58;47.94
40372;BME280;28564;53.346;-6.554;2024-03-02T01:01:13;98541.96;;;5.81;47.90
40372;BME280;28564;53.346;-6.554;2024-03-02T01:03:41;98539.73;;;5.54;47.94
40372;BME280;28564;53.346;-6.554;2024-03-02T01:06:09;98540.27;;;5.76;47.98
40372;BME280;28564;53.346;-6.554;2024-03-02T01:08:36;98538.27;;;5.68;47.95
40372;BME280;28564;53.346;-6.554;2024-03-02T01:11:04;98538.15;;;5.60;47.94
40372;BME280;28564;53.346;-6.554;2024-03-02T01:13:32;98538.81;;;5.57;48.03
40372;BME280;28564;53.346;-6.554;2024-03-02T01:16:00;98539.03;;;5.52;48.11
40372;BME280;28564;53.346;-6.554;2024-03-02T01:18:28;98539.64;;;5.21;48.18
40372;BME280;28564;53.346;-6.554;2024-03-02T01:20:55;98539.11;;;5.41;48.15
40372;BME280;28564;53.346;-6.554;2024-03-02T01:23:23;98539.77;;;5.11;48.25
40372;BME280;28564;53.346;-6.554;2024-03-02T01:25:51;98541.02;;;5.09;48.29
40372;BME280;28564;53.346;-6.554;2024-03-02T01:28:19;98544.71;;;5.31;48.27
40372;BME280;28564;53.346;-6.554;2024-03-02T01:30:46;98542.27;;;5.30;48.35
40372;BME280;28564;53.346;-6.554;2024-03-02T01:33:14;98543.66;;;5.27;48.35
40372;BME280;28564;53.346;-6.554;2024-03-02T01:35:41;98545.67;;;5.19;48.34
40372;BME280;28564;53.346;-6.554;2024-03-02T01:38:09;98547.61;;;5.24;48.41
40372;BME280;28564;53.346;-6.554;2024-03-02T01:40:37;98547.97;;;5.22;48.44
40372;BME280;28564;53.346;-6.554;2024-03-02T01:43:05;98547.14;;;4.89;48.40
40372;BME280;28564;53.346;-6.554;2024-03-02T01:45:33;98545.93;;;5.18;48.47
40372;BME280;28564;53.346;-6.554;2024-03-02T01:48:01;98548.49;;;5.14;48.51
40372;BME280;28564;53.346;-6.554;2024-03-02T01:50:31;98548.41;;;4.87;48.54
40372;BME280;28564;53.346;-6.554;2024-03-02T01:53:00;98557.45;;;5.08;48.51
40372;BME280;28564;53.346;-6.554;2024-03-02T01:55:28;98559.60;;;5.09;48.60
40372;BME280;28564;53.346;-6.554;2024-03-02T01:57:55;98557.65;;;5.51;48.73
40372;BME280;28564;53.346;-6.554;2024-03-02T02:00:22;98555.22;;;5.03;48.73
40372;BME280;28564;53.346;-6.554;2024-03-02T02:02:50;98556.61;;;5.01;48.77
40372;BME280;28564;53.346;-6.554;2024-03-02T02:05:18;98555.12;;;4.73;48.75
40372;BME280;28564;53.346;-6.554;2024-03-02T02:07:45;98556.05;;;5.01;48.80
40372;BME280;28564;53.346;-6.554;2024-03-02T02:10:13;98557.70;;;4.99;48.84
40372;BME280;28564;53.346;-6.554;2024-03-02T02:12:40;98556.49;;;4.99;48.86
40372;BME280;28564;53.346;-6.554;2024-03-02T02:15:23;98553.44;;;4.95;48.95
40372;BME280;28564;53.346;-6.554;2024-03-02T02:17:50;98556.36;;;5.19;48.94
40372;BME280;28564;53.346;-6.554;2024-03-02T02:20:17;98555.68;;;4.94;48.98
40372;BME280;28564;53.346;-6.554;2024-03-02T02:23:02;98554.70;;;5.17;48.96
40372;BME280;28564;53.346;-6.554;2024-03-02T02:25:30;98554.10;;;5.01;48.84
40372;BME280;28564;53.346;-6.554;2024-03-02T02:27:57;98554.24;;;4.94;48.83
40372;BME280;28564;53.346;-6.554;2024-03-02T02:30:26;98556.23;;;4.93;48.90
40372;BME280;28564;53.346;-6.554;2024-03-02T02:32:53;98556.38;;;4.86;49.02
40372;BME280;28564;53.346;-6.554;2024-03-02T02:35:21;98551.86;;;4.81;49.03
40372;BME280;28564;53.346;-6.554;2024-03-02T02:37:49;98550.63;;;5.02;49.02
40372;BME280;28564;53.346;-6.554;2024-03-02T02:40:18;98552.94;;;4.96;49.12
40372;BME280;28564;53.346;-6.554;2024-03-02T02:42:45;98552.20;;;4.95;49.13
40372;BME280;28564;53.346;-6.554;2024-03-02T02:45:12;98548.35;;;4.94;49.11
40372;BME280;28564;53.346;-6.554;2024-03-02T02:47:41;98551.18;;;4.68;49.06
40372;BME280;28564;53.346;-6.554;2024-03-02T02:50:08;98551.35;;;4.60;49.11
40372;BME280;28564;53.346;-6.554;2024-03-02T02:52:37;98553.26;;;4.60;49.14
40372;BME280;28564;53.346;-6.554;2024-03-02T02:55:07;98551.97;;;4.54;49.27
40372;BME280;28564;53.346;-6.554;2024-03-02T02:57:35;98553.18;;;4.53;49.31
40372;BME280;28564;53.346;-6.554;2024-03-02T03:00:04;98554.14;;;4.51;49.35
40372;BME280;28564;53.346;-6.554;2024-03-02T03:02:32;98554.82;;;5.01;49.40
40372;BME280;28564;53.346;-6.554;2024-03-02T03:04:59;98553.80;;;4.53;49.40
40372;BME280;28564;53.346;-6.554;2024-03-02T03:07:26;98555.48;;;4.54;49.42
40372;BME280;28564;53.346;-6.554;2024-03-02T03:09:53;98555.72;;;4.46;49.46
40372;BME280;28564;53.346;-6.554;2024-03-02T03:12:21;98555.37;;;4.99;49.50
40372;BME280;28564;53.346;-6.554;2024-03-02T03:14:49;98559.24;;;4.99;49.44
40372;BME280;28564;53.346;-6.554;2024-03-02T03:17:15;98556.74;;;4.48;49.46
40372;BME280;28564;53.346;-6.554;2024-03-02T03:19:43;98556.49;;;4.50;49.39
40372;BME280;28564;53.346;-6.554;2024-03-02T03:22:10;98557.72;;;4.97;49.35
40372;BME280;28564;53.346;-6.554;2024-03-02T03:24:37;98558.65;;;4.73;49.38
40372;BME280;28564;53.346;-6.554;2024-03-02T03:27:05;98556.97;;;4.94;49.41
40372;BME280;28564;53.346;-6.554;2024-03-02T03:29:33;98553.83;;;4.48;49.41
40372;BME280;28564;53.346;-6.554;2024-03-02T03:32:00;98558.20;;;4.70;49.41
40372;BME280;28564;53.346;-6.554;2024-03-02T03:34:28;98562.40;;;4.47;49.48
40372;BME280;28564;53.346;-6.554;2024-03-02T03:36:55;98562.22;;;4.91;49.51
40372;BME280;28564;53.346;-6.554;2024-03-02T03:39:22;98563.36;;;4.65;49.53
40372;BME280;28564;53.346;-6.554;2024-03-02T03:41:50;98563.34;;;4.87;49.53
40372;BME280;28564;53.346;-6.554;2024-03-02T03:44:17;98564.30;;;4.84;49.53
40372;BME280;28564;53.346;-6.554;2024-03-02T03:46:45;98566.12;;;4.30;49.60
40372;BME280;28564;53.346;-6.554;2024-03-02T03:49:13;98567.49;;;4.51;49.59
40372;BME280;28564;53.346;-6.554;2024-03-02T03:51:40;98569.95;;;4.29;49.63
40372;BME280;28564;53.346;-6.554;2024-03-02T03:54:07;98569.17;;;4.48;49.70
40372;BME280;28564;53.346;-6.554;2024-03-02T03:56:34;98564.19;;;4.46;49.69
40372;BME280;28564;53.346;-6.554;2024-03-02T03:59:01;98559.85;;;4.12;49.80
40372;BME280;28564;53.346;-6.554;2024-03-02T04:01:29;98560.44;;;4.29;49.85
40372;BME280;28564;53.346;-6.554;2024-03-02T04:03:56;98560.35;;;4.30;49.87
40372;BME280;28564;53.346;-6.554;2024-03-02T04:06:24;98564.02;;;4.27;49.87
40372;BME280;28564;53.346;-6.554;2024-03-02T04:08:52;98562.74;;;4.55;49.88
40372;BME280;28564;53.346;-6.554;2024-03-02T04:11:19;98562.84;;;4.56;49.89
40372;BME280;28564;53.346;-6.554;2024-03-02T04:13:46;98559.92;;;4.54;49.90
40372;BME280;28564;53.346;-6.554;2024-03-02T04:16:14;98563.00;;;4.11;49.88
40372;BME280;28564;53.346;-6.554;2024-03-02T04:18:41;98564.88;;;4.59;49.85
40372;BME280;28564;53.346;-6.554;2024-03-02T04:21:08;98566.46;;;4.58;49.79
40372;BME280;28564;53.346;-6.554;2024-03-02T04:23:35;98569.32;;;4.12;49.74
40372;BME280;28564;53.346;-6.554;2024-03-02T04:26:03;98568.48;;;4.61;49.70
40372;BME280;28564;53.346;-6.554;2024-03-02T04:28:30;98567.74;;;4.36;49.64
40372;BME280;28564;53.346;-6.554;2024-03-02T04:30:59;98565.93;;;4.35;49.57
40372;BME280;28564;53.346;-6.554;2024-03-02T04:33:26;98565.42;;;4.61;49.54
40372;BME280;28564;53.346;-6.554;2024-03-02T04:35:53;98563.17;;;4.07;49.72
40372;BME280;28564;53.346;-6.554;2024-03-02T04:38:21;98563.61;;;4.56;49.87
40372;BME280;28564;53.346;-6.554;2024-03-02T04:40:48;98563.17;;;4.54;49.91
40372;BME280;28564;53.346;-6.554;2024-03-02T04:43:16;98567.29;;;4.51;50.08
40372;BME280;28564;53.346;-6.554;2024-03-02T04:45:43;98574.22;;;4.56;50.12
40372;BME280;28564;53.346;-6.554;2024-03-02T04:48:11;98574.62;;;4.29;50.15
40372;BME280;28564;53.346;-6.554;2024-03-02T04:50:38;98575.42;;;4.29;50.22
40372;BME280;28564;53.346;-6.554;2024-03-02T04:53:05;98575.63;;;4.51;50.21
40372;BME280;28564;53.346;-6.554;2024-03-02T04:55:33;98576.18;;;4.48;50.22
40372;BME280;28564;53.346;-6.554;2024-03-02T04:58:00;98578.00;;;4.43;50.32
40372;BME280;28564;53.346;-6.554;2024-03-02T05:00:28;98576.79;;;4.12;50.38
40372;BME280;28564;53.346;-6.554;2024-03-02T05:02:55;98583.48;;;4.42;50.37
40372;BME280;28564;53.346;-6.554;2024-03-02T05:05:23;98582.69;;;4.34;50.63
40372;BME280;28564;53.346;-6.554;2024-03-02T05:07:51;98578.94;;;4.33;50.65
40372;BME280;28564;53.346;-6.554;2024-03-02T05:10:19;98581.21;;;4.37;50.60
40372;BME280;28564;53.346;-6.554;2024-03-02T05:12:46;98581.11;;;4.35;50.61
40372;BME280;28564;53.346;-6.554;2024-03-02T05:15:14;98579.95;;;4.34;50.60
40372;BME280;28564;53.346;-6.554;2024-03-02T05:17:42;98584.35;;;4.34;50.66
40372;BME280;28564;53.346;-6.554;2024-03-02T05:20:10;98584.51;;;4.10;50.56
40372;BME280;28564;53.346;-6.554;2024-03-02T05:22:38;98584.31;;;4.36;50.48
40372;BME280;28564;53.346;-6.554;2024-03-02T05:25:06;98584.88;;;4.37;50.42
40372;BME280;28564;53.346;-6.554;2024-03-02T05:27:33;98583.74;;;4.32;50.50
40372;BME280;28564;53.346;-6.554;2024-03-02T05:30:01;98585.37;;;4.26;50.52
40372;BME280;28564;53.346;-6.554;2024-03-02T05:32:28;98588.88;;;4.26;50.39
40372;BME280;28564;53.346;-6.554;2024-03-02T05:34:55;98593.02;;;4.21;50.39
40372;BME280;28564;53.346;-6.554;2024-03-02T05:37:23;98591.34;;;4.20;50.40
40372;BME280;28564;53.346;-6.554;2024-03-02T05:39:50;98594.66;;;4.15;50.69
40372;BME280;28564;53.346;-6.554;2024-03-02T05:42:18;98594.84;;;4.17;50.76
40372;BME280;28564;53.346;-6.554;2024-03-02T05:44:45;98592.16;;;4.40;50.84
40372;BME280;28564;53.346;-6.554;2024-03-02T05:47:13;98592.46;;;4.13;51.12
40372;BME280;28564;53.346;-6.554;2024-03-02T05:49:40;98592.47;;;4.15;51.12
40372;BME280;28564;53.346;-6.554;2024-03-02T05:52:08;98592.02;;;3.87;51.35
40372;BME280;28564;53.346;-6.554;2024-03-02T05:54:35;98592.70;;;4.11;51.50
40372;BME280;28564;53.346;-6.554;2024-03-02T05:57:03;98594.84;;;4.16;51.63
40372;BME280;28564;53.346;-6.554;2024-03-02T05:59:30;98596.75;;;4.47;51.39
40372;BME280;28564;53.346;-6.554;2024-03-02T06:01:58;98594.03;;;4.27;51.36
40372;BME280;28564;53.346;-6.554;2024-03-02T06:04:25;98599.61;;;4.30;51.65
40372;BME280;28564;53.346;-6.554;2024-03-02T06:06:52;98598.17;;;4.04;51.66
40372;BME280;28564;53.346;-6.554;2024-03-02T06:09:20;98603.77;;;4.31;51.60
40372;BME280;28564;53.346;-6.554;2024-03-02T06:11:47;98601.22;;;4.32;51.55
40372;BME280;28564;53.346;-6.554;2024-03-02T06:14:15;98598.60;;;4.03;51.58
40372;BME280;28564;53.346;-6.554;2024-03-02T06:16:42;98599.72;;;4.31;51.60
40372;BME280;28564;53.346;-6.554;2024-03-02T06:19:09;98599.77;;;3.84;51.49
40372;BME280;28564;53.346;-6.554;2024-03-02T06:21:37;98600.37;;;4.34;51.49
40372;BME280;28564;53.346;-6.554;2024-03-02T06:24:05;98601.08;;;4.34;51.46
40372;BME280;28564;53.346;-6.554;2024-03-02T06:26:33;98603.54;;;4.32;51.57
40372;BME280;28564;53.346;-6.554;2024-03-02T06:29:00;98610.99;;;4.37;51.49
40372;BME280;28564;53.346;-6.554;2024-03-02T06:31:27;98609.47;;;4.32;51.75
40372;BME280;28564;53.346;-6.554;2024-03-02T06:33:55;98610.98;;;4.31;51.86
40372;BME280;28564;53.346;-6.554;2024-03-02T06:36:22;98615.76;;;4.35;51.87
40372;BME280;28564;53.346;-6.554;2024-03-02T06:38:50;98614.96;;;4.29;51.88
40372;BME280;28564;53.346;-6.554;2024-03-02T06:41:17;98614.11;;;4.34;51.85
40372;BME280;28564;53.346;-6.554;2024-03-02T06:43:45;98616.55;;;4.32;51.82
40372;BME280;28564;53.346;-6.554;2024-03-02T06:46:12;98616.94;;;4.34;51.83
40372;BME280;28564;53.346;-6.554;2024-03-02T06:48:39;98622.18;;;4.34;51.88
40372;BME280;28564;53.346;-6.554;2024-03-02T06:51:07;98623.59;;;4.37;51.84
40372;BME280;28564;53.346;-6.554;2024-03-02T06:53:34;98625.98;;;4.31;52.09
40372;BME280;28564;53.346;-6.554;2024-03-02T06:56:02;98622.20;;;4.36;52.05
40372;BME280;28564;53.346;-6.554;2024-03-02T06:58:29;98626.58;;;4.35;51.94
40372;BME280;28564;53.346;-6.554;2024-03-02T07:00:56;98624.36;;;4.09;52.01
40372;BME280;28564;53.346;-6.554;2024-03-02T07:03:24;98624.36;;;4.37;51.81
40372;BME280;28564;53.346;-6.554;2024-03-02T07:05:51;98627.18;;;4.02;51.98
40372;BME280;28564;53.346;-6.554;2024-03-02T07:08:19;98627.67;;;4.38;51.82
40372;BME280;28564;53.346;-6.554;2024-03-02T07:10:46;98634.90;;;4.33;51.90
40372;BME280;28564;53.346;-6.554;2024-03-02T07:13:14;98634.22;;;4.09;51.93
40372;BME280;28564;53.346;-6.554;2024-03-02T07:15:41;98634.15;;;4.33;51.86
40372;BME280;28564;53.346;-6.554;2024-03-02T07:18:08;98637.77;;;4.32;51.80
40372;BME280;28564;53.346;-6.554;2024-03-02T07:20:36;98641.24;;;4.06;51.79
40372;BME280;28564;53.346;-6.554;2024-03-02T07:23:03;98638.99;;;4.28;51.78
40372;BME280;28564;53.346;-6.554;2024-03-02T07:25:31;98638.56;;;4.30;51.74
40372;BME280;28564;53.346;-6.554;2024-03-02T07:27:58;98637.80;;;4.26;51.76
40372;BME280;28564;53.346;-6.554;2024-03-02T07:30:26;98638.10;;;4.32;51.71
40372;BME280;28564;53.346;-6.554;2024-03-02T07:32:53;98641.29;;;4.58;51.62
40372;BME280;28564;53.346;-6.554;2024-03-02T07:35:21;98648.52;;;3.86;51.65
40372;BME280;28564;53.346;-6.554;2024-03-02T07:37:48;98648.79;;;4.37;51.67
40372;BME280;28564;53.346;-6.554;2024-03-02T07:40:16;98654.28;;;4.37;51.68
40372;BME280;28564;53.346;-6.554;2024-03-02T07:42:43;98653.23;;;4.44;51.61
40372;BME280;28564;53.346;-6.554;2024-03-02T07:45:11;98657.29;;;4.20;51.60
40372;BME280;28564;53.346;-6.554;2024-03-02T07:47:38;98661.97;;;4.45;51.51
40372;BME280;28564;53.346;-6.554;2024-03-02T07:50:06;98663.60;;;4.53;51.30
40372;BME280;28564;53.346;-6.554;2024-03-02T07:52:33;98663.49;;;4.54;51.22
40372;BME280;28564;53.346;-6.554;2024-03-02T07:55:01;98665.19;;;4.30;51.18
40372;BME280;28564;53.346;-6.554;2024-03-02T07:57:28;98667.92;;;4.56;51.24
40372;BME280;28564;53.346;-6.554;2024-03-02T07:59:56;98667.81;;;4.58;51.33
40372;BME280;28564;53.346;-6.554;2024-03-02T08:02:23;98666.55;;;4.58;51.37
40372;BME280;28564;53.346;-6.554;2024-03-02T08:04:51;98666.66;;;4.32;51.41
40372;BME280;28564;53.346;-6.554;2024-03-02T08:07:18;98666.28;;;4.59;51.44
40372;BME280;28564;53.346;-6.554;2024-03-02T08:09:46;98670.89;;;4.30;51.48
40372;BME280;28564;53.346;-6.554;2024-03-02T08:12:13;98668.24;;;4.37;51.52
40372;BME280;28564;53.346;-6.554;2024-03-02T08:14:40;98670.50;;;4.60;51.71
40372;BME280;28564;53.346;-6.554;2024-03-02T08:17:08;98669.93;;;4.40;51.70
40372;BME280;28564;53.346;-6.554;2024-03-02T08:19:36;98664.95;;;4.47;51.67
40372;BME280;28564;53.346;-6.554;2024-03-02T08:22:04;98664.48;;;4.80;51.71
40372;BME280;28564;53.346;-6.554;2024-03-02T08:24:31;98662.55;;;4.80;51.85
40372;BME280;28564;53.346;-6.554;2024-03-02T08:26:59;98662.15;;;4.63;51.79
40372;BME280;28564;53.346;-6.554;2024-03-02T08:29:27;98663.48;;;4.96;51.76
40372;BME280;28564;53.346;-6.554;2024-03-02T08:31:54;98662.00;;;4.72;51.90
40372;BME280;28564;53.346;-6.554;2024-03-02T08:34:21;98662.82;;;4.58;51.98
40372;BME280;28564;53.346;-6.554;2024-03-02T08:36:49;98660.34;;;4.70;51.97
40372;BME280;28564;53.346;-6.554;2024-03-02T08:39:16;98662.94;;;4.74;51.89
40372;BME280;28564;53.346;-6.554;2024-03-02T08:41:45;98668.06;;;4.81;51.76
40372;BME280;28564;53.346;-6.554;2024-03-02T08:44:12;98669.20;;;4.86;52.01
40372;BME280;28564;53.346;-6.554;2024-03-02T08:46:40;98673.07;;;5.46;51.74
40372;BME280;28564;53.346;-6.554;2024-03-02T08:49:07;98677.72;;;5.22;51.95
40372;BME280;28564;53.346;-6.554;2024-03-02T08:51:34;98679.54;;;5.08;51.71
40372;BME280;28564;53.346;-6.554;2024-03-02T08:54:02;98678.70;;;5.32;51.78
40372;BME280;28564;53.346;-6.554;2024-03-02T08:56:29;98677.37;;;4.91;51.68
40372;BME280;28564;53.346;-6.554;2024-03-02T08:58:56;98681.69;;;5.28;51.72
40372;BME280;28564;53.346;-6.554;2024-03-02T09:01:24;98680.30;;;5.31;51.57
40372;BME280;28564;53.346;-6.554;2024-03-02T09:03:51;98679.26;;;5.08;51.51
40372;BME280;28564;53.346;-6.554;2024-03-02T09:06:19;98677.34;;;5.32;51.49
40372;BME280;28564;53.346;-6.554;2024-03-02T09:08:46;98677.04;;;5.38;51.75
40372;BME280;28564;53.346;-6.554;2024-03-02T09:11:13;98669.86;;;5.51;51.36
40372;BME280;28564;53.346;-6.554;2024-03-02T09:13:41;98678.01;;;5.28;51.65
40372;BME280;28564;53.346;-6.554;2024-03-02T09:16:08;98681.26;;;5.58;51.48
40372;BME280;28564;53.346;-6.554;2024-03-02T09:18:36;98681.50;;;5.61;51.52
40372;BME280;28564;53.346;-6.554;2024-03-02T09:21:04;98685.27;;;5.38;51.46
40372;BME280;28564;53.346;-6.554;2024-03-02T09:23:31;98687.47;;;5.48;51.37
40372;BME280;28564;53.346;-6.554;2024-03-02T09:25:59;98693.11;;;5.81;51.44
40372;BME280;28564;53.346;-6.554;2024-03-02T09:28:26;98694.62;;;5.59;51.10
40372;BME280;28564;53.346;-6.554;2024-03-02T09:30:53;98687.45;;;5.87;51.39
40372;BME280;28564;53.346;-6.554;2024-03-02T09:33:21;98689.86;;;5.37;51.21
40372;BME280;28564;53.346;-6.554;2024-03-02T09:35:49;98693.20;;;5.67;51.58
40372;BME280;28564;53.346;-6.554;2024-03-02T09:38:16;98693.50;;;5.86;51.05
40372;BME280;28564;53.346;-6.554;2024-03-02T09:40:44;98697.67;;;6.21;51.23
40372;BME280;28564;53.346;-6.554;2024-03-02T09:43:11;98694.50;;;5.87;50.50
40372;BME280;28564;53.346;-6.554;2024-03-02T09:45:39;98692.56;;;6.18;50.44
40372;BME280;28564;53.346;-6.554;2024-03-02T09:48:12;98691.23;;;6.10;50.68
40372;BME280;28564;53.346;-6.554;2024-03-02T09:50:40;98688.65;;;6.47;50.45
40372;BME280;28564;53.346;-6.554;2024-03-02T09:53:07;98689.37;;;6.38;50.20
40372;BME280;28564;53.346;-6.554;2024-03-02T09:55:35;98684.10;;;6.70;49.86
40372;BME280;28564;53.346;-6.554;2024-03-02T09:58:03;98683.34;;;6.71;50.14
40372;BME280;28564;53.346;-6.554;2024-03-02T10:00:31;98689.69;;;7.24;49.80
40372;BME280;28564;53.346;-6.554;2024-03-02T10:02:58;98689.94;;;7.28;49.40
40372;BME280;28564;53.346;-6.554;2024-03-02T10:05:27;98695.02;;;7.30;48.69
40372;BME280;28564;53.346;-6.554;2024-03-02T10:08:00;98692.42;;;7.52;48.35
40372;BME280;28564;53.346;-6.554;2024-03-02T10:10:35;98693.61;;;7.44;47.57
40372;BME280;28564;53.346;-6.554;2024-03-02T10:13:04;98691.35;;;7.83;47.80
40372;BME280;28564;53.346;-6.554;2024-03-02T10:15:32;98685.53;;;7.98;47.73
40372;BME280;28564;53.346;-6.554;2024-03-02T10:18:00;98685.62;;;8.19;46.83
40372;BME280;28564;53.346;-6.554;2024-03-02T10:20:28;98683.09;;;8.30;46.85
40372;BME280;28564;53.346;-6.554;2024-03-02T10:22:55;98681.36;;;8.42;46.40
40372;BME280;28564;53.346;-6.554;2024-03-02T10:25:32;98676.02;;;8.62;46.04
40372;BME280;28564;53.346;-6.554;2024-03-02T10:28:00;98681.67;;;8.69;45.69
40372;BME280;28564;53.346;-6.554;2024-03-02T10:30:28;98683.82;;;8.69;45.40
40372;BME280;28564;53.346;-6.554;2024-03-02T10:32:55;98686.42;;;8.81;46.13
40372;BME280;28564;53.346;-6.554;2024-03-02T10:35:23;98679.81;;;9.08;45.47
40372;BME280;28564;53.346;-6.554;2024-03-02T10:37:50;98688.71;;;9.19;44.93
40372;BME280;28564;53.346;-6.554;2024-03-02T10:40:21;98683.10;;;9.08;44.14
40372;BME280;28564;53.346;-6.554;2024-03-02T10:42:50;98678.57;;;8.87;44.67
40372;BME280;28564;53.346;-6.554;2024-03-02T10:45:17;98681.73;;;8.89;44.58
40372;BME280;28564;53.346;-6.554;2024-03-02T10:47:47;98678.02;;;9.19;45.04
40372;BME280;28564;53.346;-6.554;2024-03-02T10:50:14;98675.99;;;9.37;43.79
40372;BME280;28564;53.346;-6.554;2024-03-02T10:52:42;98671.73;;;9.32;43.38
40372;BME280;28564;53.346;-6.554;2024-03-02T10:55:11;98675.38;;;8.92;44.12
40372;BME280;28564;53.346;-6.554;2024-03-02T10:57:42;98675.35;;;9.50;44.33
40372;BME280;28564;53.346;-6.554;2024-03-02T11:00:14;98674.86;;;9.37;43.88
40372;BME280;28564;53.346;-6.554;2024-03-02T11:02:45;98674.02;;;9.39;43.76
40372;BME280;28564;53.346;-6.554;2024-03-02T11:05:13;98678.82;;;9.65;44.16
40372;BME280;28564;53.346;-6.554;2024-03-02T11:07:43;98686.95;;;9.90;42.90
40372;BME280;28564;53.346;-6.554;2024-03-02T11:10:11;98686.52;;;10.00;42.58
40372;BME280;28564;53.346;-6.554;2024-03-02T11:12:43;98687.22;;;10.12;43.14
40372;BME280;28564;53.346;-6.554;2024-03-02T11:15:18;98684.94;;;9.78;42.68
40372;BME280;28564;53.346;-6.554;2024-03-02T11:17:48;98696.16;;;10.10;42.93
40372;BME280;28564;53.346;-6.554;2024-03-02T11:20:16;98695.17;;;9.83;42.75
40372;BME280;28564;53.346;-6.554;2024-03-02T11:22:43;98701.81;;;9.87;43.05
40372;BME280;28564;53.346;-6.554;2024-03-02T11:25:23;98695.95;;;9.78;42.19
40372;BME280;28564;53.346;-6.554;2024-03-02T11:28:07;98689.75;;;10.20;42.45
40372;BME280;28564;53.346;-6.554;2024-03-02T11:30:50;98693.26;;;10.21;42.46
40372;BME280;28564;53.346;-6.554;2024-03-02T11:33:26;98686.87;;;10.55;42.03
40372;BME280;28564;53.346;-6.554;2024-03-02T11:35:53;98685.06;;;10.58;41.46
40372;BME280;28564;53.346;-6.554;2024-03-02T11:38:22;98686.79;;;10.44;40.72
40372;BME280;28564;53.346;-6.554;2024-03-02T11:40:50;98686.45;;;10.41;41.48
40372;BME280;28564;53.346;-6.554;2024-03-02T11:43:17;98687.31;;;10.26;42.30
40372;BME280;28564;53.346;-6.554;2024-03-02T11:45:44;98692.13;;;10.46;41.85
40372;BME280;28564;53.346;-6.554;2024-03-02T11:48:14;98693.85;;;10.40;41.92
40372;BME280;28564;53.346;-6.554;2024-03-02T11:50:46;98693.09;;;10.34;41.32
40372;BME280;28564;53.346;-6.554;2024-03-02T11:53:14;98688.29;;;10.78;41.59
40372;BME280;28564;53.346;-6.554;2024-03-02T11:55:42;98686.20;;;10.77;41.01
40372;BME280;28564;53.346;-6.554;2024-03-02T11:58:09;98690.79;;;10.69;40.02
40372;BME280;28564;53.346;-6.554;2024-03-02T12:00:37;98680.50;;;10.71;40.63
40372;BME280;28564;53.346;-6.554;2024-03-02T12:03:06;98681.74;;;10.60;40.45
40372;BME280;28564;53.346;-6.554;2024-03-02T12:05:33;98685.87;;;10.69;41.33
40372;BME280;28564;53.346;-6.554;2024-03-02T12:08:03;98684.99;;;10.72;40.57
40372;BME280;28564;53.346;-6.554;2024-03-02T12:10:32;98688.14;;;10.82;40.30
40372;BME280;28564;53.346;-6.554;2024-03-02T12:13:00;98677.31;;;10.94;40.29
40372;BME280;28564;53.346;-6.554;2024-03-02T12:15:29;98672.45;;;10.86;40.60
40372;BME280;28564;53.346;-6.554;2024-03-02T12:17:59;98676.27;;;11.16;40.33
40372;BME280;28564;53.346;-6.554;2024-03-02T12:20:28;98672.88;;;11.04;40.69
40372;BME280;28564;53.346;-6.554;2024-03-02T12:22:57;98674.63;;;11.05;40.89
40372;BME280;28564;53.346;-6.554;2024-03-02T12:25:25;98677.87;;;11.05;40.83
40372;BME280;28564;53.346;-6.554;2024-03-02T12:27:54;98672.89;;;11.03;41.33
40372;BME280;28564;53.346;-6.554;2024-03-02T12:30:22;98666.75;;;10.92;41.52
40372;BME280;28564;53.346;-6.554;2024-03-02T12:32:55;98669.71;;;11.19;41.43
40372;BME280;28564;53.346;-6.554;2024-03-02T12:35:24;98663.82;;;11.03;40.82
40372;BME280;28564;53.346;-6.554;2024-03-02T12:37:53;98661.26;;;11.20;40.95
40372;BME280;28564;53.346;-6.554;2024-03-02T12:40:22;98658.75;;;11.13;40.53
40372;BME280;28564;53.346;-6.554;2024-03-02T12:42:59;98651.81;;;12.06;40.52
40372;BME280;28564;53.346;-6.554;2024-03-02T12:45:27;98647.07;;;11.54;39.24
40372;BME280;28564;53.346;-6.554;2024-03-02T12:47:54;98639.82;;;12.15;38.67
40372;BME280;28564;53.346;-6.554;2024-03-02T12:50:21;98633.03;;;12.72;37.86
40372;BME280;28564;53.346;-6.554;2024-03-02T12:52:52;98629.00;;;13.66;38.02
40372;BME280;28564;53.346;-6.554;2024-03-02T12:55:21;98629.43;;;14.63;36.08
40372;BME280;28564;53.346;-6.554;2024-03-02T12:57:50;98628.34;;;15.01;34.57
40372;BME280;28564;53.346;-6.554;2024-03-02T13:00:23;98628.28;;;15.96;34.44
40372;BME280;28564;53.346;-6.554;2024-03-02T13:02:51;98625.94;;;16.94;32.02
40372;BME280;28564;53.346;-6.554;2024-03-02T13:05:19;98613.47;;;17.44;30.61